KHTO 241715Z AUTO 28006KT 10SM CLR 14/05 A3017 RMK AO2 T01370052

KHTO 241615Z AUTO 27005KT 10SM SCT035 13/05 A3019 RMK AO2 T01290047

KHTO 241515Z AUTO 29006KT 10SM CLR 12/04 A3019 RMK AO2 T01240037

KHTO 241415Z AUTO 01007KT 10SM CLR 12/04 A3018 RMK AO2 T01170037

KHTO 241315Z AUTO 33007KT 300V360 10SM CLR 11/04 A3018 RMK AO2 T01060039

KHTO 241215Z AUTO 31004KT 10SM CLR 08/07 A3016 RMK AO2 T00760067

KHTO 241115Z AUTO 32003KT 10SM CLR 04/03 A3013 RMK AO2 T00360032

KHTO 241015Z AUTO 00000KT 10SM CLR 04/04 A3011 RMK AO2 T00440039